sensor_id;sensor_type;location;lat;lon;timestamp;temperature;humidity
10451;DHT22;5273;51.290;6.918;2023-04-01T00:12:43;9.70;99.90
10451;DHT22;5273;51.290;6.918;2023-04-01T00:15:11;9.70;99.90
10451;DHT22;5273;51.290;6.918;2023-04-01T00:20:06;9.70;99.90
10451;DHT22;5273;51.290;6.918;2023-04-01T00:29:56;9.70;99.90
10451;DHT22;5273;51.290;6.918;2023-04-01T00:47:09;9.60;99.90
10451;DHT22;5273;51.290;6.918;2023-04-01T00:49:38;9.60;99.90
10451;DHT22;5273;51.290;6.918;2023-04-01T00:52:08;9.60;99.90
10451;DHT22;5273;51.290;6.918;2023-04-01T00:57:07;9.60;99.90
10451;DHT22;5273;51.290;6.918;2023-04-01T00:59:39;9.60;99.90
10451;DHT22;5273;51.290;6.918;2023-04-01T01:02:10;9.60;99.90
10451;DHT22;5273;51.290;6.918;2023-04-01T01:07:12;9.60;99.90
10451;DHT22;5273;51.290;6.918;2023-04-01T01:09:46;9.60;99.90
10451;DHT22;5273;51.290;6.918;2023-04-01T01:12:19;9.60;99.90
10451;DHT22;5273;51.290;6.918;2023-04-01T01:14:55;9.60;99.90
10451;DHT22;5273;51.290;6.918;2023-04-01T01:17:35;9.60;99.90
10451;DHT22;5273;51.290;6.918;2023-04-01T01:20:32;9.60;99.90
10451;DHT22;5273;51.290;6.918;2023-04-01T01:23:23;9.70;99.90
10451;DHT22;5273;51.290;6.918;2023-04-01T01:26:18;9.70;99.90
10451;DHT22;5273;51.290;6.918;2023-04-01T01:28:58;9.70;99.90
10451;DHT22;5273;51.290;6.918;2023-04-01T01:31:34;7.30;99.90
10451;DHT22;5273;51.290;6.918;2023-04-01T01:34:14;9.70;99.90
10451;DHT22;5273;51.290;6.918;2023-04-01T01:36:45;9.70;99.90
10451;DHT22;5273;51.290;6.918;2023-04-01T01:39:16;9.60;99.90
10451;DHT22;5273;51.290;6.918;2023-04-01T01:41:45;9.70;99.90
10451;DHT22;5273;51.290;6.918;2023-04-01T01:44:16;9.70;99.90
10451;DHT22;5273;51.290;6.918;2023-04-01T01:46:43;9.70;99.90
10451;DHT22;5273;51.290;6.918;2023-04-01T01:49:13;9.70;99.90
10451;DHT22;5273;51.290;6.918;2023-04-01T01:54:13;9.60;99.90
10451;DHT22;5273;51.290;6.918;2023-04-01T01:56:41;9.60;99.90
10451;DHT22;5273;51.290;6.918;2023-04-01T01:59:11;9.60;99.90
10451;DHT22;5273;51.290;6.918;2023-04-01T02:01:41;9.60;99.90
10451;DHT22;5273;51.290;6.918;2023-04-01T02:04:10;9.50;99.90
10451;DHT22;5273;51.290;6.918;2023-04-01T02:06:40;9.60;99.90
10451;DHT22;5273;51.290;6.918;2023-04-01T02:09:10;9.60;99.90
10451;DHT22;5273;51.290;6.918;2023-04-01T02:11:43;9.50;99.90
10451;DHT22;5273;51.290;6.918;2023-04-01T02:14:15;9.50;99.90
10451;DHT22;5273;51.290;6.918;2023-04-01T02:16:47;9.60;99.90
10451;DHT22;5273;51.290;6.918;2023-04-01T02:19:17;9.50;99.90
10451;DHT22;5273;51.290;6.918;2023-04-01T02:21:50;9.50;99.90
10451;DHT22;5273;51.290;6.918;2023-04-01T02:26:48;9.50;99.90
10451;DHT22;5273;51.290;6.918;2023-04-01T02:29:18;9.40;99.90
10451;DHT22;5273;51.290;6.918;2023-04-01T02:41:39;9.40;99.90
10451;DHT22;5273;51.290;6.918;2023-04-01T02:44:08;9.40;99.90
10451;DHT22;5273;51.290;6.918;2023-04-01T03:01:20;9.30;99.90
10451;DHT22;5273;51.290;6.918;2023-04-01T03:06:15;9.30;99.90
10451;DHT22;5273;51.290;6.918;2023-04-01T03:16:04;9.30;99.90
10451;DHT22;5273;51.290;6.918;2023-04-01T03:18:33;9.30;99.90
10451;DHT22;5273;51.290;6.918;2023-04-01T03:21:12;9.30;99.90
10451;DHT22;5273;51.290;6.918;2023-04-01T03:35:57;9.30;99.90
10451;DHT22;5273;51.290;6.918;2023-04-01T03:48:13;9.30;99.90
10451;DHT22;5273;51.290;6.918;2023-04-01T03:53:09;9.30;99.90
10451;DHT22;5273;51.290;6.918;2023-04-01T04:05:26;9.40;99.90
10451;DHT22;5273;51.290;6.918;2023-04-01T04:07:53;9.30;99.90
10451;DHT22;5273;51.290;6.918;2023-04-01T04:10:22;9.30;99.90
10451;DHT22;5273;51.290;6.918;2023-04-01T04:25:07;9.40;99.90
10451;DHT22;5273;51.290;6.918;2023-04-01T04:27:35;9.40;99.90
10451;DHT22;5273;51.290;6.918;2023-04-01T04:32:30;9.40;99.90
10451;DHT22;5273;51.290;6.918;2023-04-01T04:44:47;11.90;99.90
10451;DHT22;5273;51.290;6.918;2023-04-01T04:59:30;9.40;99.90
10451;DHT22;5273;51.290;6.918;2023-04-01T05:01:58;9.40;99.90
10451;DHT22;5273;51.290;6.918;2023-04-01T05:19:09;9.40;99.90
10451;DHT22;5273;51.290;6.918;2023-04-01T05:36:21;9.40;99.90
10451;DHT22;5273;51.290;6.918;2023-04-01T05:51:04;9.40;99.90
10451;DHT22;5273;51.290;6.918;2023-04-01T05:53:33;9.40;99.90
10451;DHT22;5273;51.290;6.918;2023-04-01T05:56:02;9.40;99.90
10451;DHT22;5273;51.290;6.918;2023-04-01T06:01:00;9.30;99.90
10451;DHT22;5273;51.290;6.918;2023-04-01T06:11:01;9.40;99.90
10451;DHT22;5273;51.290;6.918;2023-04-01T06:13:47;9.40;99.90
10451;DHT22;5273;51.290;6.918;2023-04-01T06:16:22;9.40;99.90
10451;DHT22;5273;51.290;6.918;2023-04-01T06:19:03;9.30;99.90
10451;DHT22;5273;51.290;6.918;2023-04-01T06:21:54;9.40;99.90
10451;DHT22;5273;51.290;6.918;2023-04-01T06:24:36;9.40;99.90
10451;DHT22;5273;51.290;6.918;2023-04-01T06:27:16;9.40;99.90
10451;DHT22;5273;51.290;6.918;2023-04-01T06:30:06;9.40;99.90
10451;DHT22;5273;51.290;6.918;2023-04-01T06:33:01;9.40;99.90
10451;DHT22;5273;51.290;6.918;2023-04-01T06:35:46;9.40;99.90
10451;DHT22;5273;51.290;6.918;2023-04-01T06:38:27;9.50;99.90
10451;DHT22;5273;51.290;6.918;2023-04-01T06:41:20;9.50;99.90
10451;DHT22;5273;51.290;6.918;2023-04-01T06:43:58;9.50;99.90
10451;DHT22;5273;51.290;6.918;2023-04-01T06:46:35;9.50;99.90
10451;DHT22;5273;51.290;6.918;2023-04-01T06:49:17;9.50;99.90
10451;DHT22;5273;51.290;6.918;2023-04-01T06:51:51;9.60;99.90
10451;DHT22;5273;51.290;6.918;2023-04-01T06:54:25;9.60;99.90
10451;DHT22;5273;51.290;6.918;2023-04-01T06:56:59;9.60;99.90
10451;DHT22;5273;51.290;6.918;2023-04-01T06:59:30;9.60;99.90
10451;DHT22;5273;51.290;6.918;2023-04-01T07:01:59;9.60;99.90
10451;DHT22;5273;51.290;6.918;2023-04-01T07:04:30;9.60;99.90
10451;DHT22;5273;51.290;6.918;2023-04-01T07:07:00;9.50;99.90
10451;DHT22;5273;51.290;6.918;2023-04-01T07:09:32;9.60;99.90
10451;DHT22;5273;51.290;6.918;2023-04-01T07:12:02;9.50;99.90
10451;DHT22;5273;51.290;6.918;2023-04-01T07:14:36;9.60;99.90
10451;DHT22;5273;51.290;6.918;2023-04-01T07:17:07;9.60;99.90
10451;DHT22;5273;51.290;6.918;2023-04-01T07:19:41;9.60;99.90
10451;DHT22;5273;51.290;6.918;2023-04-01T07:22:17;9.60;99.90
10451;DHT22;5273;51.290;6.918;2023-04-01T07:24:48;9.70;99.90
10451;DHT22;5273;51.290;6.918;2023-04-01T07:29:43;9.70;99.90
10451;DHT22;5273;51.290;6.918;2023-04-01T07:32:29;9.70;99.90
10451;DHT22;5273;51.290;6.918;2023-04-01T07:35:07;9.70;99.90
10451;DHT22;5273;51.290;6.918;2023-04-01T07:37:41;9.70;99.90
10451;DHT22;5273;51.290;6.918;2023-04-01T07:40:21;9.70;99.90
10451;DHT22;5273;51.290;6.918;2023-04-01T07:43:05;9.70;99.90
10451;DHT22;5273;51.290;6.918;2023-04-01T07:45:39;9.70;99.90
10451;DHT22;5273;51.290;6.918;2023-04-01T07:48:19;9.70;99.90
10451;DHT22;5273;51.290;6.918;2023-04-01T07:50:50;9.70;99.90
10451;DHT22;5273;51.290;6.918;2023-04-01T07:53:26;9.70;99.90
10451;DHT22;5273;51.290;6.918;2023-04-01T07:56:02;9.80;99.90
10451;DHT22;5273;51.290;6.918;2023-04-01T07:58:35;9.70;99.90
10451;DHT22;5273;51.290;6.918;2023-04-01T08:01:09;9.70;99.90
10451;DHT22;5273;51.290;6.918;2023-04-01T08:03:48;9.80;99.90
10451;DHT22;5273;51.290;6.918;2023-04-01T08:06:22;9.80;99.90
10451;DHT22;5273;51.290;6.918;2023-04-01T08:08:59;9.80;99.90
10451;DHT22;5273;51.290;6.918;2023-04-01T08:11:40;9.80;99.90
10451;DHT22;5273;51.290;6.918;2023-04-01T08:14:13;9.80;99.90
10451;DHT22;5273;51.290;6.918;2023-04-01T08:16:48;9.60;99.90
10451;DHT22;5273;51.290;6.918;2023-04-01T08:19:25;9.80;99.90
10451;DHT22;5273;51.290;6.918;2023-04-01T08:21:58;9.80;99.90
10451;DHT22;5273;51.290;6.918;2023-04-01T08:24:35;9.80;99.90
10451;DHT22;5273;51.290;6.918;2023-04-01T08:27:09;9.90;99.90
10451;DHT22;5273;51.290;6.918;2023-04-01T08:29:42;9.80;99.90
10451;DHT22;5273;51.290;6.918;2023-04-01T08:32:15;9.90;99.90
10451;DHT22;5273;51.290;6.918;2023-04-01T08:34:45;9.90;99.90
10451;DHT22;5273;51.290;6.918;2023-04-01T08:37:15;9.90;99.90
10451;DHT22;5273;51.290;6.918;2023-04-01T08:39:47;10.00;99.90
10451;DHT22;5273;51.290;6.918;2023-04-01T08:42:31;9.90;99.90
10451;DHT22;5273;51.290;6.918;2023-04-01T08:45:09;10.10;99.90
10451;DHT22;5273;51.290;6.918;2023-04-01T08:50:56;10.10;99.90
10451;DHT22;5273;51.290;6.918;2023-04-01T08:53:38;10.10;99.90
10451;DHT22;5273;51.290;6.918;2023-04-01T08:56:14;10.10;99.90
10451;DHT22;5273;51.290;6.918;2023-04-01T09:01:57;10.10;99.90
10451;DHT22;5273;51.290;6.918;2023-04-01T09:04:37;10.20;99.90
10451;DHT22;5273;51.290;6.918;2023-04-01T09:07:28;10.10;99.90
10451;DHT22;5273;51.290;6.918;2023-04-01T09:10:18;10.10;99.90
10451;DHT22;5273;51.290;6.918;2023-04-01T09:13:08;10.10;99.90
10451;DHT22;5273;51.290;6.918;2023-04-01T09:15:53;10.10;99.90
10451;DHT22;5273;51.290;6.918;2023-04-01T09:18:47;10.20;99.90
10451;DHT22;5273;51.290;6.918;2023-04-01T09:21:39;10.20;99.90
10451;DHT22;5273;51.290;6.918;2023-04-01T09:24:33;10.20;99.90
10451;DHT22;5273;51.290;6.918;2023-04-01T09:27:10;10.20;99.90
10451;DHT22;5273;51.290;6.918;2023-04-01T09:35:24;10.30;99.90
10451;DHT22;5273;51.290;6.918;2023-04-01T09:38:04;10.30;99.90
10451;DHT22;5273;51.290;6.918;2023-04-01T09:40:47;10.20;99.90
10451;DHT22;5273;51.290;6.918;2023-04-01T09:43:26;10.40;99.90
10451;DHT22;5273;51.290;6.918;2023-04-01T09:46:22;10.40;99.90
10451;DHT22;5273;51.290;6.918;2023-04-01T09:49:13;10.40;99.90
10451;DHT22;5273;51.290;6.918;2023-04-01T09:51:53;10.40;99.90
10451;DHT22;5273;51.290;6.918;2023-04-01T09:54:32;10.50;99.90
10451;DHT22;5273;51.290;6.918;2023-04-01T09:57:28;10.50;99.90
10451;DHT22;5273;51.290;6.918;2023-04-01T10:00:20;10.60;99.90
10451;DHT22;5273;51.290;6.918;2023-04-01T10:09:47;10.70;99.90
10451;DHT22;5273;51.290;6.918;2023-04-01T10:15:40;10.80;99.90
10451;DHT22;5273;51.290;6.918;2023-04-01T10:18:46;10.70;99.90
10451;DHT22;5273;51.290;6.918;2023-04-01T10:24:32;10.80;99.90
10451;DHT22;5273;51.290;6.918;2023-04-01T10:27:15;10.80;99.90
10451;DHT22;5273;51.290;6.918;2023-04-01T10:33:36;10.80;99.90
10451;DHT22;5273;51.290;6.918;2023-04-01T10:36:47;10.70;99.90
10451;DHT22;5273;51.290;6.918;2023-04-01T10:42:54;10.80;99.90
10451;DHT22;5273;51.290;6.918;2023-04-01T10:45:58;10.70;99.90
10451;DHT22;5273;51.290;6.918;2023-04-01T10:49:08;10.70;99.90
10451;DHT22;5273;51.290;6.918;2023-04-01T10:55:04;10.60;99.90
10451;DHT22;5273;51.290;6.918;2023-04-01T10:58:02;10.60;99.90
10451;DHT22;5273;51.290;6.918;2023-04-01T11:00:55;10.60;99.90
10451;DHT22;5273;51.290;6.918;2023-04-01T11:07:11;10.60;99.90
10451;DHT22;5273;51.290;6.918;2023-04-01T11:13:13;10.50;99.90
10451;DHT22;5273;51.290;6.918;2023-04-01T11:22:07;10.50;99.90
10451;DHT22;5273;51.290;6.918;2023-04-01T11:24:57;10.60;99.90
10451;DHT22;5273;51.290;6.918;2023-04-01T11:27:48;10.60;99.90
10451;DHT22;5273;51.290;6.918;2023-04-01T11:30:28;10.60;99.90
10451;DHT22;5273;51.290;6.918;2023-04-01T11:33:03;10.70;99.90
10451;DHT22;5273;51.290;6.918;2023-04-01T11:35:42;10.70;99.90
10451;DHT22;5273;51.290;6.918;2023-04-01T11:38:25;10.80;99.90
10451;DHT22;5273;51.290;6.918;2023-04-01T11:40:59;10.90;99.90
10451;DHT22;5273;51.290;6.918;2023-04-01T11:43:34;11.00;99.90
10451;DHT22;5273;51.290;6.918;2023-04-01T11:46:10;11.00;99.90
10451;DHT22;5273;51.290;6.918;2023-04-01T11:48:44;11.00;99.90
10451;DHT22;5273;51.290;6.918;2023-04-01T11:51:37;11.00;99.90
10451;DHT22;5273;51.290;6.918;2023-04-01T11:54:19;10.90;99.90
10451;DHT22;5273;51.290;6.918;2023-04-01T11:57:03;10.90;99.90
10451;DHT22;5273;51.290;6.918;2023-04-01T11:59:51;10.90;99.90
10451;DHT22;5273;51.290;6.918;2023-04-01T12:02:27;10.90;99.90
10451;DHT22;5273;51.290;6.918;2023-04-01T12:05:12;10.90;99.90
10451;DHT22;5273;51.290;6.918;2023-04-01T12:08:04;10.90;99.90
10451;DHT22;5273;51.290;6.918;2023-04-01T12:10:39;10.90;99.90
10451;DHT22;5273;51.290;6.918;2023-04-01T12:13:15;10.90;99.90
10451;DHT22;5273;51.290;6.918;2023-04-01T12:16:09;10.90;99.90
10451;DHT22;5273;51.290;6.918;2023-04-01T12:18:43;10.90;99.90
10451;DHT22;5273;51.290;6.918;2023-04-01T12:21:21;10.90;99.90
10451;DHT22;5273;51.290;6.918;2023-04-01T12:24:20;10.90;99.90
10451;DHT22;5273;51.290;6.918;2023-04-01T12:26:55;10.80;99.90
10451;DHT22;5273;51.290;6.918;2023-04-01T12:29:48;10.80;99.90
10451;DHT22;5273;51.290;6.918;2023-04-01T12:32:23;10.80;99.90
10451;DHT22;5273;51.290;6.918;2023-04-01T12:35:02;10.80;99.90
10451;DHT22;5273;51.290;6.918;2023-04-01T12:37:39;10.80;99.90
10451;DHT22;5273;51.290;6.918;2023-04-01T12:40:24;10.80;99.90
10451;DHT22;5273;51.290;6.918;2023-04-01T12:43:03;10.80;99.90
10451;DHT22;5273;51.290;6.918;2023-04-01T12:45:33;10.80;99.90
10451;DHT22;5273;51.290;6.918;2023-04-01T12:48:27;10.80;99.90
10451;DHT22;5273;51.290;6.918;2023-04-01T12:51:17;10.80;99.90
10451;DHT22;5273;51.290;6.918;2023-04-01T12:54:10;10.80;99.90
10451;DHT22;5273;51.290;6.918;2023-04-01T12:56:46;10.70;99.90
10451;DHT22;5273;51.290;6.918;2023-04-01T12:59:27;10.70;99.90
10451;DHT22;5273;51.290;6.918;2023-04-01T13:02:11;10.70;99.90
10451;DHT22;5273;51.290;6.918;2023-04-01T13:05:10;10.70;99.90
10451;DHT22;5273;51.290;6.918;2023-04-01T13:07:51;10.70;99.90
10451;DHT22;5273;51.290;6.918;2023-04-01T13:10:56;10.70;99.90
10451;DHT22;5273;51.290;6.918;2023-04-01T13:16:30;10.80;99.90
10451;DHT22;5273;51.290;6.918;2023-04-01T13:19:03;10.80;99.90
10451;DHT22;5273;51.290;6.918;2023-04-01T13:21:39;10.80;99.90
10451;DHT22;5273;51.290;6.918;2023-04-01T13:27:04;10.80;99.90
10451;DHT22;5273;51.290;6.918;2023-04-01T13:29:35;10.80;99.90
10451;DHT22;5273;51.290;6.918;2023-04-01T13:32:15;10.90;99.90
10451;DHT22;5273;51.290;6.918;2023-04-01T13:34:55;10.80;99.90
10451;DHT22;5273;51.290;6.918;2023-04-01T13:37:35;10.90;99.90
10451;DHT22;5273;51.290;6.918;2023-04-01T13:40:28;10.90;99.90
10451;DHT22;5273;51.290;6.918;2023-04-01T13:43:03;11.00;99.90
10451;DHT22;5273;51.290;6.918;2023-04-01T13:45:42;11.00;99.90
10451;DHT22;5273;51.290;6.918;2023-04-01T13:48:32;11.00;99.90
10451;DHT22;5273;51.290;6.918;2023-04-01T13:51:33;11.00;99.90
10451;DHT22;5273;51.290;6.918;2023-04-01T13:54:27;11.00;99.90
10451;DHT22;5273;51.290;6.918;2023-04-01T13:57:12;10.90;99.90
10451;DHT22;5273;51.290;6.918;2023-04-01T14:00:03;10.90;99.90
10451;DHT22;5273;51.290;6.918;2023-04-01T14:02:49;10.90;99.90
10451;DHT22;5273;51.290;6.918;2023-04-01T14:05:50;10.90;99.90
10451;DHT22;5273;51.290;6.918;2023-04-01T14:08:29;10.90;99.90
10451;DHT22;5273;51.290;6.918;2023-04-01T14:11:10;10.80;99.90
10451;DHT22;5273;51.290;6.918;2023-04-01T14:13:47;10.80;99.90
10451;DHT22;5273;51.290;6.918;2023-04-01T14:16:48;10.90;99.90
10451;DHT22;5273;51.290;6.918;2023-04-01T14:19:34;10.90;99.90
10451;DHT22;5273;51.290;6.918;2023-04-01T14:22:12;10.90;99.90
10451;DHT22;5273;51.290;6.918;2023-04-01T14:25:03;11.00;99.90
10451;DHT22;5273;51.290;6.918;2023-04-01T14:27:52;10.90;99.90
10451;DHT22;5273;51.290;6.918;2023-04-01T14:30:41;11.00;99.90
10451;DHT22;5273;51.290;6.918;2023-04-01T14:33:22;10.90;99.90
10451;DHT22;5273;51.290;6.918;2023-04-01T14:36:00;10.90;99.90
10451;DHT22;5273;51.290;6.918;2023-04-01T14:38:39;10.80;99.90
10451;DHT22;5273;51.290;6.918;2023-04-01T14:41:32;10.80;99.90
10451;DHT22;5273;51.290;6.918;2023-04-01T14:44:16;10.80;99.90
10451;DHT22;5273;51.290;6.918;2023-04-01T14:47:04;10.80;99.90
10451;DHT22;5273;51.290;6.918;2023-04-01T14:49:36;10.80;99.90
10451;DHT22;5273;51.290;6.918;2023-04-01T14:52:10;10.80;99.90
10451;DHT22;5273;51.290;6.918;2023-04-01T14:54:39;10.80;99.90
10451;DHT22;5273;51.290;6.918;2023-04-01T14:57:12;10.80;99.90
10451;DHT22;5273;51.290;6.918;2023-04-01T14:59:41;10.80;99.90
10451;DHT22;5273;51.290;6.918;2023-04-01T15:02:23;10.80;99.90
10451;DHT22;5273;51.290;6.918;2023-04-01T15:05:01;10.80;99.90
10451;DHT22;5273;51.290;6.918;2023-04-01T15:07:51;10.80;99.90
10451;DHT22;5273;51.290;6.918;2023-04-01T15:10:48;10.80;99.90
10451;DHT22;5273;51.290;6.918;2023-04-01T15:13:25;10.80;99.90
10451;DHT22;5273;51.290;6.918;2023-04-01T15:16:06;10.80;99.90
10451;DHT22;5273;51.290;6.918;2023-04-01T15:18:44;10.80;99.90
10451;DHT22;5273;51.290;6.918;2023-04-01T15:21:21;10.90;99.90
10451;DHT22;5273;51.290;6.918;2023-04-01T15:23:57;10.90;99.90
10451;DHT22;5273;51.290;6.918;2023-04-01T15:26:35;10.90;99.90
10451;DHT22;5273;51.290;6.918;2023-04-01T15:29:17;10.90;99.90
10451;DHT22;5273;51.290;6.918;2023-04-01T15:31:51;10.90;99.90
10451;DHT22;5273;51.290;6.918;2023-04-01T15:34:32;10.90;99.90
10451;DHT22;5273;51.290;6.918;2023-04-01T15:37:07;10.80;99.90
10451;DHT22;5273;51.290;6.918;2023-04-01T15:39:51;10.80;99.90
10451;DHT22;5273;51.290;6.918;2023-04-01T15:42:38;10.80;99.90
10451;DHT22;5273;51.290;6.918;2023-04-01T15:45:16;10.80;99.90
10451;DHT22;5273;51.290;6.918;2023-04-01T15:47:46;10.70;99.90
10451;DHT22;5273;51.290;6.918;2023-04-01T15:50:42;10.70;99.90
10451;DHT22;5273;51.290;6.918;2023-04-01T15:53:28;10.70;99.90
10451;DHT22;5273;51.290;6.918;2023-04-01T15:55:59;10.70;99.90
10451;DHT22;5273;51.290;6.918;2023-04-01T15:58:40;10.60;99.90
10451;DHT22;5273;51.290;6.918;2023-04-01T16:01:18;10.70;99.90
10451;DHT22;5273;51.290;6.918;2023-04-01T16:03:54;10.60;99.90
10451;DHT22;5273;51.290;6.918;2023-04-01T16:06:41;10.70;99.90
10451;DHT22;5273;51.290;6.918;2023-04-01T16:09:30;10.60;99.90
10451;DHT22;5273;51.290;6.918;2023-04-01T16:12:04;10.60;99.90
10451;DHT22;5273;51.290;6.918;2023-04-01T16:14:41;10.60;99.90
10451;DHT22;5273;51.290;6.918;2023-04-01T16:20:17;10.50;99.90
10451;DHT22;5273;51.290;6.918;2023-04-01T16:22:49;10.50;99.90
10451;DHT22;5273;51.290;6.918;2023-04-01T16:25:25;10.50;99.90
10451;DHT22;5273;51.290;6.918;2023-04-01T16:28:04;10.50;99.90
10451;DHT22;5273;51.290;6.918;2023-04-01T16:30:37;10.50;99.90
10451;DHT22;5273;51.290;6.918;2023-04-01T16:33:12;10.50;99.90
10451;DHT22;5273;51.290;6.918;2023-04-01T16:35:44;10.50;99.90
10451;DHT22;5273;51.290;6.918;2023-04-01T16:38:18;10.50;99.90
10451;DHT22;5273;51.290;6.918;2023-04-01T16:40:53;10.50;99.90
10451;DHT22;5273;51.290;6.918;2023-04-01T16:43:28;10.50;99.90
10451;DHT22;5273;51.290;6.918;2023-04-01T16:46:14;10.50;99.90
10451;DHT22;5273;51.290;6.918;2023-04-01T16:48:59;10.50;99.90
10451;DHT22;5273;51.290;6.918;2023-04-01T16:51:34;10.40;99.90
10451;DHT22;5273;51.290;6.918;2023-04-01T16:54:05;10.50;99.90
10451;DHT22;5273;51.290;6.918;2023-04-01T16:56:39;10.40;99.90
10451;DHT22;5273;51.290;6.918;2023-04-01T16:59:14;10.40;99.90
10451;DHT22;5273;51.290;6.918;2023-04-01T17:01:47;10.40;99.90
10451;DHT22;5273;51.290;6.918;2023-04-01T17:04:23;10.40;99.90
10451;DHT22;5273;51.290;6.918;2023-04-01T17:06:55;10.40;99.90
10451;DHT22;5273;51.290;6.918;2023-04-01T17:09:33;10.40;99.90
10451;DHT22;5273;51.290;6.918;2023-04-01T17:12:11;10.40;99.90
10451;DHT22;5273;51.290;6.918;2023-04-01T17:14:45;10.40;99.90
10451;DHT22;5273;51.290;6.918;2023-04-01T17:17:21;10.40;99.90
10451;DHT22;5273;51.290;6.918;2023-04-01T17:20:10;10.40;99.90
10451;DHT22;5273;51.290;6.918;2023-04-01T17:22:44;10.40;99.90
10451;DHT22;5273;51.290;6.918;2023-04-01T17:28:14;10.40;99.90
10451;DHT22;5273;51.290;6.918;2023-04-01T17:30:50;10.40;99.90
10451;DHT22;5273;51.290;6.918;2023-04-01T17:33:37;10.30;99.90
10451;DHT22;5273;51.290;6.918;2023-04-01T17:36:16;10.40;99.90
10451;DHT22;5273;51.290;6.918;2023-04-01T17:39:05;10.40;99.90
10451;DHT22;5273;51.290;6.918;2023-04-01T17:41:42;10.40;99.90
10451;DHT22;5273;51.290;6.918;2023-04-01T17:44:21;10.40;99.90
10451;DHT22;5273;51.290;6.918;2023-04-01T17:47:06;10.40;99.90
10451;DHT22;5273;51.290;6.918;2023-04-01T17:49:37;10.30;99.90
10451;DHT22;5273;51.290;6.918;2023-04-01T17:52:13;10.30;99.90
10451;DHT22;5273;51.290;6.918;2023-04-01T17:54:47;10.30;99.90
10451;DHT22;5273;51.290;6.918;2023-04-01T17:57:32;10.30;99.90
10451;DHT22;5273;51.290;6.918;2023-04-01T18:00:13;10.30;99.90
10451;DHT22;5273;51.290;6.918;2023-04-01T18:02:47;10.30;99.90
10451;DHT22;5273;51.290;6.918;2023-04-01T18:05:42;10.20;99.90
10451;DHT22;5273;51.290;6.918;2023-04-01T18:08:29;10.20;99.90
10451;DHT22;5273;51.290;6.918;2023-04-01T18:11:11;10.20;99.90
10451;DHT22;5273;51.290;6.918;2023-04-01T18:14:07;10.20;99.90
10451;DHT22;5273;51.290;6.918;2023-04-01T18:16:49;10.20;99.90
10451;DHT22;5273;51.290;6.918;2023-04-01T18:19:26;10.20;99.90
10451;DHT22;5273;51.290;6.918;2023-04-01T18:21:58;10.20;99.90
10451;DHT22;5273;51.290;6.918;2023-04-01T18:24:28;11.70;99.90
10451;DHT22;5273;51.290;6.918;2023-04-01T18:27:02;10.20;99.90
10451;DHT22;5273;51.290;6.918;2023-04-01T18:29:39;10.20;99.90
10451;DHT22;5273;51.290;6.918;2023-04-01T18:32:25;10.10;99.90
10451;DHT22;5273;51.290;6.918;2023-04-01T18:34:58;10.10;99.90
10451;DHT22;5273;51.290;6.918;2023-04-01T18:37:30;10.10;99.90
10451;DHT22;5273;51.290;6.918;2023-04-01T18:40:10;10.20;99.90
10451;DHT22;5273;51.290;6.918;2023-04-01T18:42:43;10.20;99.90
10451;DHT22;5273;51.290;6.918;2023-04-01T18:45:19;10.20;99.90
10451;DHT22;5273;51.290;6.918;2023-04-01T18:47:55;10.20;99.90
10451;DHT22;5273;51.290;6.918;2023-04-01T18:50:24;10.10;99.90
10451;DHT22;5273;51.290;6.918;2023-04-01T18:52:57;10.10;99.90
10451;DHT22;5273;51.290;6.918;2023-04-01T18:55:36;10.10;99.90
10451;DHT22;5273;51.290;6.918;2023-04-01T18:58:35;10.00;99.90
10451;DHT22;5273;51.290;6.918;2023-04-01T19:01:12;10.10;99.90
10451;DHT22;5273;51.290;6.918;2023-04-01T19:03:48;10.30;99.90
10451;DHT22;5273;51.290;6.918;2023-04-01T19:06:23;10.10;99.90
10451;DHT22;5273;51.290;6.918;2023-04-01T19:08:52;10.10;99.90
10451;DHT22;5273;51.290;6.918;2023-04-01T19:11:26;10.10;99.90
10451;DHT22;5273;51.290;6.918;2023-04-01T19:14:00;10.10;99.90
10451;DHT22;5273;51.290;6.918;2023-04-01T19:16:42;10.10;99.90
10451;DHT22;5273;51.290;6.918;2023-04-01T19:19:21;10.10;99.90
10451;DHT22;5273;51.290;6.918;2023-04-01T19:21:56;10.00;99.90
10451;DHT22;5273;51.290;6.918;2023-04-01T19:24:53;10.00;99.90
10451;DHT22;5273;51.290;6.918;2023-04-01T19:27:34;10.00;99.90
10451;DHT22;5273;51.290;6.918;2023-04-01T19:30:27;10.00;99.90
10451;DHT22;5273;51.290;6.918;2023-04-01T19:33:01;10.00;99.90
10451;DHT22;5273;51.290;6.918;2023-04-01T19:35:38;10.00;99.90
10451;DHT22;5273;51.290;6.918;2023-04-01T19:38:14;10.00;99.90
10451;DHT22;5273;51.290;6.918;2023-04-01T19:40:51;10.00;99.90
10451;DHT22;5273;51.290;6.918;2023-04-01T19:43:38;10.00;99.90
10451;DHT22;5273;51.290;6.918;2023-04-01T19:46:15;10.00;99.90
10451;DHT22;5273;51.290;6.918;2023-04-01T19:48:51;9.90;99.90
10451;DHT22;5273;51.290;6.918;2023-04-01T19:51:27;9.90;99.90
10451;DHT22;5273;51.290;6.918;2023-04-01T19:54:01;9.90;99.90
10451;DHT22;5273;51.290;6.918;2023-04-01T19:56:34;9.90;99.90
10451;DHT22;5273;51.290;6.918;2023-04-01T19:59:10;9.90;99.90
10451;DHT22;5273;51.290;6.918;2023-04-01T20:01:43;9.90;99.90
10451;DHT22;5273;51.290;6.918;2023-04-01T20:04:14;9.90;99.90
10451;DHT22;5273;51.290;6.918;2023-04-01T20:06:47;9.90;99.90
10451;DHT22;5273;51.290;6.918;2023-04-01T20:09:35;9.90;99.90
10451;DHT22;5273;51.290;6.918;2023-04-01T20:12:11;9.90;99.90
10451;DHT22;5273;51.290;6.918;2023-04-01T20:14:46;9.90;99.90
10451;DHT22;5273;51.290;6.918;2023-04-01T20:17:18;9.90;99.90
10451;DHT22;5273;51.290;6.918;2023-04-01T20:19:54;9.90;99.90
10451;DHT22;5273;51.290;6.918;2023-04-01T20:22:49;10.00;99.90
10451;DHT22;5273;51.290;6.918;2023-04-01T20:25:23;10.00;99.90
10451;DHT22;5273;51.290;6.918;2023-04-01T20:27:54;10.00;99.90
10451;DHT22;5273;51.290;6.918;2023-04-01T20:31:07;10.00;99.90
10451;DHT22;5273;51.290;6.918;2023-04-01T20:33:58;10.00;99.90
10451;DHT22;5273;51.290;6.918;2023-04-01T20:36:33;10.10;99.90
10451;DHT22;5273;51.290;6.918;2023-04-01T20:39:18;10.10;99.90
10451;DHT22;5273;51.290;6.918;2023-04-01T20:41:59;10.10;99.90
10451;DHT22;5273;51.290;6.918;2023-04-01T20:44:34;10.10;99.90
10451;DHT22;5273;51.290;6.918;2023-04-01T20:47:17;9.90;99.90
10451;DHT22;5273;51.290;6.918;2023-04-01T20:49:53;9.90;99.90
10451;DHT22;5273;51.290;6.918;2023-04-01T20:52:28;9.90;99.90
10451;DHT22;5273;51.290;6.918;2023-04-01T20:55:18;10.00;99.90
10451;DHT22;5273;51.290;6.918;2023-04-01T20:57:56;10.00;99.90
10451;DHT22;5273;51.290;6.918;2023-04-01T21:00:33;9.90;99.90
10451;DHT22;5273;51.290;6.918;2023-04-01T21:03:12;9.90;99.90
10451;DHT22;5273;51.290;6.918;2023-04-01T21:06:13;9.90;99.90
10451;DHT22;5273;51.290;6.918;2023-04-01T21:08:53;9.90;99.90
10451;DHT22;5273;51.290;6.918;2023-04-01T21:11:33;9.90;99.90
10451;DHT22;5273;51.290;6.918;2023-04-01T21:14:26;9.90;99.90
10451;DHT22;5273;51.290;6.918;2023-04-01T21:17:00;9.90;99.90
10451;DHT22;5273;51.290;6.918;2023-04-01T21:19:52;9.90;99.90
10451;DHT22;5273;51.290;6.918;2023-04-01T21:22:36;9.80;99.90
10451;DHT22;5273;51.290;6.918;2023-04-01T21:25:27;9.80;99.90
10451;DHT22;5273;51.290;6.918;2023-04-01T21:28:28;9.80;99.90
10451;DHT22;5273;51.290;6.918;2023-04-01T21:31:11;9.70;99.90
10451;DHT22;5273;51.290;6.918;2023-04-01T21:33:59;9.90;99.90